AirNav   Pilot Hours Calculator
 
 1331 users online  

00GA LT World Airport
Lithonia, Georgia, USA

GOING TO LITHONIA?


FAA INFORMATION EFFECTIVE 04 NOVEMBER 2021

Location

FAA Identifier: 00GA
Lat/Long: 33-46-03.0000N 084-04-06.0000W
33-46.050000N 084-04.100000W
33.7675000,-84.0683333
(estimated)
Elevation: 700 ft. / 213 m (estimated)
Variation: 03W (1995)
From city: 4 miles SW of LITHONIA, GA
Time zone: UTC -4 (UTC -5 during Standard Time)
Zip code: 30058

Airport Operations

Airport use: Private use. Permission required prior to landing
Activation date: 05/1999
Control tower: no
ARTCC: ATLANTA CENTER
FSS: MACON FLIGHT SERVICE STATION
Attendance: UNATNDD
Wind indicator: yes
Segmented circle: no

Airport Communications

WX ASOS at PDK (13 nm NW): 128.4 (770-457-1691)
WX AWOS-3PT at LZU (14 nm NE): PHONE 770-339-7753
WX AWOS-3 at CVC (14 nm SE): 118.725 (770-385-7057)
WX AWOS-3PT at D73 (19 nm E): 120.825 (678-635-3668)
WX ASOS at ATL (20 nm SW): PHONE 404-559-5166

Nearby radio navigation aids

VOR radial/distance  VOR name  Freq  Var
PDKr124/13.2PEACHTREE VOR/DME116.6005W
ATLr071/20.1ATLANTA VORTAC116.9005W
AHNr254/38.6ATHENS VOR/DME109.6000E

 
NDB name  Hdg/Dist  Freq  Var  ID
ALCOVY303/16.537003WVOF ...- --- ..-.
BARROW COUNTY252/25.940405WBMW -... -- .--
FLOWERY BRANCH200/27.436503WFKV ..-. -.- ...-
PECAT042/34.931605WFFC ..-. ..-. -.-.
CHERO149/35.841505WDJD -.. .--- -..

Airport Services

Runway Information

Runway 9/27

Dimensions: 2600 x 80 ft. / 792 x 24 m
Surface: turf
RUNWAY 9  RUNWAY 27
Traffic pattern: leftleft
Obstructions: 90 ft. tree, 200 ft. from runwaynone

Airport Ownership and Management from official FAA records

Ownership: Privately-owned
Owner: LACY THOMPSON, JR.
7980 LT PARKWAY
LITHONIA, GA 30058
Phone 770-482-4836
Manager: LACY THOMPSON, JR.
7980 LT PARKWAY
LITHONIA, GA 30058
Phone 770-482-4836

Airport Operational Statistics

Aircraft based on the field: 1
Helicopters: 1
    

Additional Remarks

445 TOWER 2.5 NM SOUTHWEST OF ARPT.
ALL APCHS FROM EAST & ALL DEPS TO EAST.
FOR CD CTC ATLANTA APCH AT 678-364-6131.

Instrument Procedures

There are no published instrument procedures at 00GA.

Some nearby airports with instrument procedures:

KPDK - Dekalb-Peachtree Airport (13 nm NW)
KLZU - Gwinnett County Airport-Briscoe Field (14 nm NE)
KCVC - Covington Municipal Airport (14 nm SE)
D73 - Cy Nunnally Memorial Airport (19 nm E)
KATL - Hartsfield - Jackson Atlanta International Airport (20 nm SW)
 
Loc | Ops | Rwys | IFR | FBO | Links
Com | Nav | Svcs | Stats | Notes
Area around 00GA (LT World Airport)
 
Road maps at: MapQuest Bing Google
 
Aerial photo
No photo
 
Sectional chart

 
Airport distance calculator
Flying to LT World Airport? Find the distance to fly.

From to 00GA

Sunrise and sunset
Times for 28-Nov-2021
 Local
(UTC-5)
 Zulu
(UTC)
Morning civil twilight06:5411:54
Sunrise07:2112:21
Sunset17:2722:27
Evening civil twilight17:5422:54

Current date and time
Zulu (UTC)  28-Nov-2021 22:11:38
Local (UTC-5)  28-Nov-2021 17:11:38
 
METAR
KPDK 
13nm NW 
282153Z 31011G16KT 10SM CLR 14/01 A2997 RMK AO2 SLP153 T01390006
KCVC 
14nm SE 
282159Z AUTO 27003KT 10SM CLR 13/02 A2995 RMK AO2
KLZU 
14nm N 
282156Z 28006KT 10SM CLR 13/01 A2995 RMK AO2 SLP154 T01330006
KD73 
19nm E 
282155Z AUTO 00000KT 10SM CLR 12/01 A2995 RMK AO2 T01240009
KATL 
21nm SW 
282152Z 26005KT 10SM FEW180 BKN220 BKN250 13/01 A2997 RMK AO2 SLP151 T01330011
KFTY 
22nm W 
282153Z 32006KT 10SM CLR 15/01 A2998 RMK AO2 SLP151 T01500006
KWDR 
24nm NE 
282155Z AUTO 24004KT 10SM CLR 12/00 A2996 RMK AO2
KMGE 
24nm W 
282156Z 29007KT 10SM SCT150 BKN250 14/00 A2997 RMK AO2A SLP153 T01350002 $
KHMP 
26nm SW 
282155Z AUTO 00000KT 10SM CLR 12/02 A3002 RMK AO2 T01230022
TAF
KPDK 
13nm NW 
281738Z 2818/2918 29007KT P6SM BKN250 FM290200 32006KT P6SM FEW250 FM291500 34009G19KT P6SM SKC
NOTAMs
Click for the latest NOTAMs
NOTAMs are issued by the DoD/FAA and will open in a separate window not controlled by AirNav.

 

 
 

Would you like to see your business listed on this page?

 If your business provides an interesting product or service to pilots, flight crews, aircraft, or users of the LT World Airport, you should consider listing it here.  To start the listing process, click on the button below
 
Add a business
 

Other Pages about LT World Airport

Update a link
 
Copyright © AirNav, LLC. All rights reserved. Privacy Policy  Contact